EG-0002 weather

Az Zaqaziq
Sharqia Governorate, Egypt

Public forecast

Using degrees Celsius for public forecast. Weather courtesy of forecast.io.

METAR (pilot weather report)

Closest report is Cairo International Airport, 31.4 nm (58.2 km) SSW. Retrieved 2019/04/22 19:00 UTC (34 minutes ago):

HECA 221900Z 36010KT CAVOK 17/07 Q1020

TAF (pilot weather forecast)

Closest forecast is Cairo International Airport, 31.4 nm (58.2 km) SSW. Retrieved 2019/04/22 18:21 UTC (1 hour ago):

TAF HECA 221700Z 2218/2324 35009KT 9999 FEW025 TEMPO 2300/2306 VRB03KT 3000BR NSC